createdAt,value
2019-04-10T08:15:06.929Z,4.9
2019-04-10T08:20:09.981Z,5
2019-04-10T08:25:11.310Z,5.2
2019-04-10T08:30:13.988Z,5.4
2019-04-10T08:35:17.346Z,5.6
2019-04-10T08:40:19.071Z,5.7
2019-04-10T08:45:21.150Z,5.7
2019-04-10T08:50:23.589Z,5.7
2019-04-10T08:55:26.162Z,5.7
2019-04-10T09:00:28.913Z,5.8
2019-04-10T09:05:31.098Z,5.9
2019-04-10T09:10:34.360Z,6.1
2019-04-10T09:15:36.096Z,6.3
2019-04-10T09:20:38.483Z,6.5
2019-04-10T09:25:41.554Z,6.7
2019-04-10T09:30:43.027Z,6.8
2019-04-10T09:35:45.454Z,7.1
2019-04-10T09:40:48.807Z,7.1
2019-04-10T09:45:51.457Z,7.1
2019-04-10T09:55:55.321Z,7.3
2019-04-10T10:00:58.463Z,7.4
2019-04-10T10:06:00.728Z,7.5
2019-04-10T10:11:02.536Z,7.6
2019-04-10T10:16:06.376Z,7.7
2019-04-10T10:21:08.215Z,7.6
2019-04-10T10:26:10.020Z,7.8
2019-04-10T10:31:12.282Z,8
2019-04-10T10:36:15.811Z,8.3
2019-04-10T10:41:18.096Z,8.6
2019-04-10T10:46:19.926Z,9
2019-04-10T10:51:22.542Z,8.9
2019-04-10T10:56:24.654Z,9.3
2019-04-10T11:01:27.522Z,9.8
2019-04-10T11:11:32.553Z,9.9
2019-04-10T11:16:34.275Z,9.7
2019-04-10T11:21:36.780Z,9.8
2019-04-10T11:26:39.969Z,9.9
2019-04-10T11:31:41.815Z,10.3
2019-04-10T11:36:46.042Z,10.6
2019-04-10T11:41:49.035Z,10.5
2019-04-10T11:46:49.376Z,10.5
2019-04-10T11:51:53.444Z,10.9
2019-04-10T11:56:57.922Z,11.2
2019-04-10T12:02:00.610Z,11.7
2019-04-10T12:07:01.335Z,12.2
2019-04-10T12:12:01.520Z,12.2
2019-04-10T12:17:03.747Z,11.9
2019-04-10T12:22:06.082Z,12.4
2019-04-10T12:27:09.156Z,13.1
2019-04-10T12:32:10.833Z,13.7
2019-04-10T12:37:13.352Z,12.9
2019-04-10T12:42:16.474Z,13.1
2019-04-10T12:47:18.173Z,13.8
2019-04-10T12:52:20.706Z,14.8
2019-04-10T12:57:23.180Z,15.5
2019-04-10T13:02:26.031Z,15.5
2019-04-10T13:07:28.086Z,15.2
2019-04-10T13:12:31.268Z,14.8
2019-04-10T13:17:33.159Z,14.7
2019-04-10T13:22:35.962Z,14.5
2019-04-10T13:27:37.703Z,14.9
2019-04-10T13:32:40.357Z,14.8
2019-04-10T13:37:43.447Z,14.8
2019-04-10T13:42:45.412Z,15.5
2019-04-10T13:47:48.464Z,16.7
2019-04-10T13:52:52.194Z,18
2019-04-10T13:57:52.981Z,19
2019-04-10T14:02:54.774Z,19.1
2019-04-10T14:07:57.697Z,19.1
2019-04-10T14:12:59.772Z,19.4
2019-04-10T14:18:02.131Z,19.7
2019-04-10T14:23:04.594Z,20.4
2019-04-10T14:28:07.046Z,20.6
2019-04-10T14:33:10.492Z,20.2
2019-04-10T14:38:12.022Z,21
2019-04-10T14:43:14.653Z,22.4
2019-04-10T14:48:18.172Z,22.3
2019-04-10T14:53:19.345Z,22.4
2019-04-10T14:58:27.378Z,22.5
2019-04-10T15:03:24.355Z,22.5
2019-04-10T15:08:27.870Z,23.3
2019-04-10T15:13:29.626Z,22.7
2019-04-10T15:18:31.379Z,21.8
2019-04-10T15:23:33.830Z,22.1
2019-04-10T15:28:36.310Z,23
2019-04-10T15:33:39.390Z,22.7
2019-04-10T15:38:42.140Z,22.1
2019-04-10T15:43:43.616Z,22.4
2019-04-10T15:53:49.390Z,21.8
2019-04-10T15:58:52.112Z,21.4
2019-04-10T16:03:54.421Z,21.3
2019-04-10T16:08:56.710Z,21.2
2019-04-10T16:13:59.028Z,20.8
2019-04-10T16:19:02.103Z,20.2
2019-04-10T16:24:03.174Z,19.8
2019-04-10T16:29:05.574Z,18.7
2019-04-10T16:34:09.162Z,16.9
2019-04-10T16:39:11.367Z,16
2019-04-10T16:44:13.079Z,15
2019-04-10T16:49:15.477Z,14
2019-04-10T16:54:20.027Z,13.3
2019-04-10T16:59:21.380Z,12.7
2019-04-10T17:04:23.052Z,12.2
2019-04-10T17:09:25.131Z,11.6
2019-04-10T17:14:27.558Z,11.1
2019-04-10T17:19:30.806Z,10.7
2019-04-10T17:24:33.448Z,10.2
2019-04-10T17:29:35.196Z,9.8
2019-04-10T17:34:37.325Z,9.5
2019-04-10T17:39:39.807Z,9.1
2019-04-10T17:44:42.280Z,8.8
2019-04-10T17:49:44.643Z,8.5
2019-04-10T17:54:47.154Z,8.3
2019-04-10T17:59:50.965Z,8
2019-04-10T18:09:54.415Z,7.6
2019-04-10T18:14:57.600Z,7.4
2019-04-10T18:19:59.245Z,7.3
2019-04-10T18:25:01.803Z,7.1
2019-04-10T18:30:04.483Z,6.9
2019-04-10T18:35:06.796Z,6.9
2019-04-10T18:40:09.029Z,6.8
2019-04-10T18:45:11.609Z,6.6
2019-04-10T18:55:16.471Z,6.3
2019-04-10T19:00:19.114Z,6.2
2019-04-10T19:05:21.436Z,6.1
2019-04-10T19:10:23.770Z,6
2019-04-10T19:15:26.207Z,5.9
2019-04-10T19:20:29.077Z,5.9
2019-04-10T19:25:31.012Z,5.8
2019-04-10T19:30:33.900Z,5.7
2019-04-10T19:35:37.166Z,5.6
2019-04-10T19:40:38.762Z,5.4
2019-04-10T19:45:41.858Z,5.3
2019-04-10T19:50:43.679Z,5.2
2019-04-10T19:55:46.473Z,5.1
